sensor_id;sensor_type;location;lat;lon;timestamp;temperature;humidity
46366;DHT22;32073;49.166;8.076;2023-04-01T00:00:12;13.90;56.90
46366;DHT22;32073;49.166;8.076;2023-04-01T00:04:13;13.80;56.80
46366;DHT22;32073;49.166;8.076;2023-04-01T00:08:14;13.90;56.90
46366;DHT22;32073;49.166;8.076;2023-04-01T00:12:15;13.90;56.90
46366;DHT22;32073;49.166;8.076;2023-04-01T00:16:16;13.90;56.90
46366;DHT22;32073;49.166;8.076;2023-04-01T00:20:17;13.90;56.90
46366;DHT22;32073;49.166;8.076;2023-04-01T00:24:18;13.80;56.80
46366;DHT22;32073;49.166;8.076;2023-04-01T00:28:19;13.80;56.70
46366;DHT22;32073;49.166;8.076;2023-04-01T00:32:20;13.90;56.70
46366;DHT22;32073;49.166;8.076;2023-04-01T00:36:21;13.80;56.80
46366;DHT22;32073;49.166;8.076;2023-04-01T00:40:28;13.80;56.80
46366;DHT22;32073;49.166;8.076;2023-04-01T00:44:32;13.80;56.90
46366;DHT22;32073;49.166;8.076;2023-04-01T00:48:37;13.80;56.80
46366;DHT22;32073;49.166;8.076;2023-04-01T00:52:40;13.80;56.60
46366;DHT22;32073;49.166;8.076;2023-04-01T00:56:58;13.80;57.10
46366;DHT22;32073;49.166;8.076;2023-04-01T01:01:00;13.70;56.30
46366;DHT22;32073;49.166;8.076;2023-04-01T01:05:02;13.70;56.40
46366;DHT22;32073;49.166;8.076;2023-04-01T01:13:24;13.70;56.70
46366;DHT22;32073;49.166;8.076;2023-04-01T01:17:44;13.70;56.80
46366;DHT22;32073;49.166;8.076;2023-04-01T01:30:51;13.80;56.70
46366;DHT22;32073;49.166;8.076;2023-04-01T01:35:20;13.80;56.80
46366;DHT22;32073;49.166;8.076;2023-04-01T01:39:27;13.80;56.70
46366;DHT22;32073;49.166;8.076;2023-04-01T01:43:37;13.80;56.70
46366;DHT22;32073;49.166;8.076;2023-04-01T01:47:40;13.80;56.70
46366;DHT22;32073;49.166;8.076;2023-04-01T01:51:41;13.80;56.70
46366;DHT22;32073;49.166;8.076;2023-04-01T01:55:45;13.80;56.70
46366;DHT22;32073;49.166;8.076;2023-04-01T01:59:48;13.80;56.80
46366;DHT22;32073;49.166;8.076;2023-04-01T02:03:50;13.80;56.80
46366;DHT22;32073;49.166;8.076;2023-04-01T02:08:06;13.80;56.80
46366;DHT22;32073;49.166;8.076;2023-04-01T02:12:10;13.80;56.80
46366;DHT22;32073;49.166;8.076;2023-04-01T02:16:35;13.90;57.00
46366;DHT22;32073;49.166;8.076;2023-04-01T02:20:40;13.90;57.20
46366;DHT22;32073;49.166;8.076;2023-04-01T02:24:41;13.90;57.00
46366;DHT22;32073;49.166;8.076;2023-04-01T02:28:45;13.80;57.10
46366;DHT22;32073;49.166;8.076;2023-04-01T02:32:48;13.90;57.20
46366;DHT22;32073;49.166;8.076;2023-04-01T02:36:50;13.80;57.30
46366;DHT22;32073;49.166;8.076;2023-04-01T02:40:58;13.70;57.20
46366;DHT22;32073;49.166;8.076;2023-04-01T02:45:01;13.70;57.40
46366;DHT22;32073;49.166;8.076;2023-04-01T02:49:02;13.70;57.40
46366;DHT22;32073;49.166;8.076;2023-04-01T02:53:03;13.70;57.30
46366;DHT22;32073;49.166;8.076;2023-04-01T02:57:06;13.70;57.20
46366;DHT22;32073;49.166;8.076;2023-04-01T03:01:07;13.70;57.10
46366;DHT22;32073;49.166;8.076;2023-04-01T03:05:08;13.70;57.20
46366;DHT22;32073;49.166;8.076;2023-04-01T03:09:09;13.70;57.10
46366;DHT22;32073;49.166;8.076;2023-04-01T03:13:09;13.60;57.10
46366;DHT22;32073;49.166;8.076;2023-04-01T03:17:10;13.60;57.00
46366;DHT22;32073;49.166;8.076;2023-04-01T03:21:16;13.60;57.00
46366;DHT22;32073;49.166;8.076;2023-04-01T03:25:18;13.60;57.00
46366;DHT22;32073;49.166;8.076;2023-04-01T03:29:19;13.60;57.10
46366;DHT22;32073;49.166;8.076;2023-04-01T03:33:19;13.60;57.10
46366;DHT22;32073;49.166;8.076;2023-04-01T03:37:20;13.60;57.10
46366;DHT22;32073;49.166;8.076;2023-04-01T03:41:21;13.60;57.30
46366;DHT22;32073;49.166;8.076;2023-04-01T03:45:21;13.60;57.40
46366;DHT22;32073;49.166;8.076;2023-04-01T03:49:22;13.50;57.30
46366;DHT22;32073;49.166;8.076;2023-04-01T03:53:23;13.60;57.40
46366;DHT22;32073;49.166;8.076;2023-04-01T03:57:23;13.60;57.40
46366;DHT22;32073;49.166;8.076;2023-04-01T04:01:24;13.50;57.30
46366;DHT22;32073;49.166;8.076;2023-04-01T04:05:25;13.50;57.40
46366;DHT22;32073;49.166;8.076;2023-04-01T04:09:26;13.50;57.70
46366;DHT22;32073;49.166;8.076;2023-04-01T04:13:27;13.50;57.80
46366;DHT22;32073;49.166;8.076;2023-04-01T04:17:28;13.40;57.90
46366;DHT22;32073;49.166;8.076;2023-04-01T04:21:29;13.40;58.10
46366;DHT22;32073;49.166;8.076;2023-04-01T04:25:29;13.40;58.10
46366;DHT22;32073;49.166;8.076;2023-04-01T04:29:30;13.30;58.30
46366;DHT22;32073;49.166;8.076;2023-04-01T04:33:31;13.40;58.40
46366;DHT22;32073;49.166;8.076;2023-04-01T04:37:32;13.40;59.00
46366;DHT22;32073;49.166;8.076;2023-04-01T04:41:32;13.40;58.40
46366;DHT22;32073;49.166;8.076;2023-04-01T04:45:33;13.40;58.50
46366;DHT22;32073;49.166;8.076;2023-04-01T04:49:34;13.40;58.50
46366;DHT22;32073;49.166;8.076;2023-04-01T04:53:34;13.40;58.50
46366;DHT22;32073;49.166;8.076;2023-04-01T04:57:35;13.40;58.60
46366;DHT22;32073;49.166;8.076;2023-04-01T05:01:36;13.40;58.70
46366;DHT22;32073;49.166;8.076;2023-04-01T05:05:37;13.40;58.70
46366;DHT22;32073;49.166;8.076;2023-04-01T05:09:38;13.40;58.80
46366;DHT22;32073;49.166;8.076;2023-04-01T05:13:39;13.50;58.80
46366;DHT22;32073;49.166;8.076;2023-04-01T05:17:40;13.50;58.80
46366;DHT22;32073;49.166;8.076;2023-04-01T05:21:41;13.50;58.90
46366;DHT22;32073;49.166;8.076;2023-04-01T05:25:42;13.50;58.80
46366;DHT22;32073;49.166;8.076;2023-04-01T05:29:43;13.40;58.80
46366;DHT22;32073;49.166;8.076;2023-04-01T05:33:44;13.50;58.90
46366;DHT22;32073;49.166;8.076;2023-04-01T05:37:44;13.40;58.80
46366;DHT22;32073;49.166;8.076;2023-04-01T05:41:45;13.50;59.00
46366;DHT22;32073;49.166;8.076;2023-04-01T05:45:46;13.50;59.10
46366;DHT22;32073;49.166;8.076;2023-04-01T05:50:04;13.50;59.10
46366;DHT22;32073;49.166;8.076;2023-04-01T05:54:05;13.30;58.90
46366;DHT22;32073;49.166;8.076;2023-04-01T05:58:06;13.50;59.10
46366;DHT22;32073;49.166;8.076;2023-04-01T06:02:08;13.40;59.10
46366;DHT22;32073;49.166;8.076;2023-04-01T06:06:16;13.40;59.20
46366;DHT22;32073;49.166;8.076;2023-04-01T06:10:39;13.40;59.50
46366;DHT22;32073;49.166;8.076;2023-04-01T06:14:57;13.40;59.40
46366;DHT22;32073;49.166;8.076;2023-04-01T06:20:06;13.40;59.40
46366;DHT22;32073;49.166;8.076;2023-04-01T06:40:48;13.50;59.70
46366;DHT22;32073;49.166;8.076;2023-04-01T06:45:06;13.50;59.80
46366;DHT22;32073;49.166;8.076;2023-04-01T06:49:33;13.60;59.70
46366;DHT22;32073;49.166;8.076;2023-04-01T06:58:20;13.60;59.90
46366;DHT22;32073;49.166;8.076;2023-04-01T07:02:32;13.70;60.00
46366;DHT22;32073;49.166;8.076;2023-04-01T07:06:50;13.70;60.10
46366;DHT22;32073;49.166;8.076;2023-04-01T07:10:58;13.70;60.00
46366;DHT22;32073;49.166;8.076;2023-04-01T07:15:13;13.70;59.90
46366;DHT22;32073;49.166;8.076;2023-04-01T07:19:42;13.70;60.00
46366;DHT22;32073;49.166;8.076;2023-04-01T07:23:45;13.70;60.20
46366;DHT22;32073;49.166;8.076;2023-04-01T07:27:46;13.70;60.00
46366;DHT22;32073;49.166;8.076;2023-04-01T07:36:42;13.70;60.60
46366;DHT22;32073;49.166;8.076;2023-04-01T07:41:01;13.80;60.60
46366;DHT22;32073;49.166;8.076;2023-04-01T07:54:24;13.80;60.80
46366;DHT22;32073;49.166;8.076;2023-04-01T07:58:57;13.90;60.70
46366;DHT22;32073;49.166;8.076;2023-04-01T08:03:24;13.90;60.90
46366;DHT22;32073;49.166;8.076;2023-04-01T08:22:02;14.20;61.50
46366;DHT22;32073;49.166;8.076;2023-04-01T08:26:32;14.30;61.50
46366;DHT22;32073;49.166;8.076;2023-04-01T08:31:00;14.40;61.70
46366;DHT22;32073;49.166;8.076;2023-04-01T08:35:18;14.60;61.70
46366;DHT22;32073;49.166;8.076;2023-04-01T08:39:41;14.70;61.40
46366;DHT22;32073;49.166;8.076;2023-04-01T08:48:48;14.80;61.60
46366;DHT22;32073;49.166;8.076;2023-04-01T08:53:07;14.90;61.50
46366;DHT22;32073;49.166;8.076;2023-04-01T08:57:24;15.00;61.40
46366;DHT22;32073;49.166;8.076;2023-04-01T09:10:24;15.10;61.40
46366;DHT22;32073;49.166;8.076;2023-04-01T09:15:00;15.20;61.40
46366;DHT22;32073;49.166;8.076;2023-04-01T09:38:29;15.50;61.70
46366;DHT22;32073;49.166;8.076;2023-04-01T09:42:44;15.60;61.50
46366;DHT22;32073;49.166;8.076;2023-04-01T09:56:24;15.90;61.30
46366;DHT22;32073;49.166;8.076;2023-04-01T10:01:09;15.90;61.30
46366;DHT22;32073;49.166;8.076;2023-04-01T10:10:20;16.10;61.00
46366;DHT22;32073;49.166;8.076;2023-04-01T10:37:49;16.40;61.10
46366;DHT22;32073;49.166;8.076;2023-04-01T11:10:17;16.40;60.30
46366;DHT22;32073;49.166;8.076;2023-04-01T11:24:04;16.40;60.40
46366;DHT22;32073;49.166;8.076;2023-04-01T11:33:09;16.40;60.20
46366;DHT22;32073;49.166;8.076;2023-04-01T11:37:40;16.40;60.20
46366;DHT22;32073;49.166;8.076;2023-04-01T11:42:10;16.50;60.60
46366;DHT22;32073;49.166;8.076;2023-04-01T11:47:02;16.50;60.60
46366;DHT22;32073;49.166;8.076;2023-04-01T12:04:58;16.70;60.30
46366;DHT22;32073;49.166;8.076;2023-04-01T12:14:05;16.80;60.00
46366;DHT22;32073;49.166;8.076;2023-04-01T12:23:16;16.70;59.70
46366;DHT22;32073;49.166;8.076;2023-04-01T12:31:52;16.80;59.70
46366;DHT22;32073;49.166;8.076;2023-04-01T12:36:32;16.80;59.60
46366;DHT22;32073;49.166;8.076;2023-04-01T12:45:15;16.70;59.00
46366;DHT22;32073;49.166;8.076;2023-04-01T13:16:35;16.70;59.20
46366;DHT22;32073;49.166;8.076;2023-04-01T13:21:51;16.60;58.90
46366;DHT22;32073;49.166;8.076;2023-04-01T13:26:03;16.70;59.00
46366;DHT22;32073;49.166;8.076;2023-04-01T13:35:10;16.70;58.50
46366;DHT22;32073;49.166;8.076;2023-04-01T13:39:33;16.60;58.50
46366;DHT22;32073;49.166;8.076;2023-04-01T13:43:52;16.60;58.30
46366;DHT22;32073;49.166;8.076;2023-04-01T13:48:31;16.50;58.40
46366;DHT22;32073;49.166;8.076;2023-04-01T13:53:14;16.50;58.40
46366;DHT22;32073;49.166;8.076;2023-04-01T13:58:00;16.50;58.50
46366;DHT22;32073;49.166;8.076;2023-04-01T14:25:01;16.50;58.90
46366;DHT22;32073;49.166;8.076;2023-04-01T14:29:55;16.50;58.90
46366;DHT22;32073;49.166;8.076;2023-04-01T14:34:23;16.50;58.90
46366;DHT22;32073;49.166;8.076;2023-04-01T14:43:22;16.60;59.20
46366;DHT22;32073;49.166;8.076;2023-04-01T14:47:46;16.60;59.00
46366;DHT22;32073;49.166;8.076;2023-04-01T14:51:52;16.70;58.90
46366;DHT22;32073;49.166;8.076;2023-04-01T14:55:59;16.70;58.90
46366;DHT22;32073;49.166;8.076;2023-04-01T15:04:30;16.50;58.30
46366;DHT22;32073;49.166;8.076;2023-04-01T15:17:54;16.30;58.30
46366;DHT22;32073;49.166;8.076;2023-04-01T15:22:39;16.20;58.60
46366;DHT22;32073;49.166;8.076;2023-04-01T15:27:29;16.10;58.50
46366;DHT22;32073;49.166;8.076;2023-04-01T15:32:01;16.10;58.30
46366;DHT22;32073;49.166;8.076;2023-04-01T15:36:16;16.00;58.50
46366;DHT22;32073;49.166;8.076;2023-04-01T15:40:32;16.00;58.80
46366;DHT22;32073;49.166;8.076;2023-04-01T16:03:21;15.90;58.40
46366;DHT22;32073;49.166;8.076;2023-04-01T16:16:35;15.80;58.20
46366;DHT22;32073;49.166;8.076;2023-04-01T16:21:07;15.70;57.90
46366;DHT22;32073;49.166;8.076;2023-04-01T16:25:33;15.60;57.80
46366;DHT22;32073;49.166;8.076;2023-04-01T16:29:43;15.60;57.90
46366;DHT22;32073;49.166;8.076;2023-04-01T16:33:58;15.50;57.90
46366;DHT22;32073;49.166;8.076;2023-04-01T16:42:48;15.40;58.00
46366;DHT22;32073;49.166;8.076;2023-04-01T16:47:21;15.30;57.80
46366;DHT22;32073;49.166;8.076;2023-04-01T16:51:24;15.30;57.80
46366;DHT22;32073;49.166;8.076;2023-04-01T16:55:45;15.20;57.80
46366;DHT22;32073;49.166;8.076;2023-04-01T17:00:02;15.20;57.80
46366;DHT22;32073;49.166;8.076;2023-04-01T17:09:11;15.00;57.80
46366;DHT22;32073;49.166;8.076;2023-04-01T17:22:59;14.90;57.80
46366;DHT22;32073;49.166;8.076;2023-04-01T17:27:20;14.80;57.70
46366;DHT22;32073;49.166;8.076;2023-04-01T17:32:03;14.80;57.60
46366;DHT22;32073;49.166;8.076;2023-04-01T17:50:02;14.40;57.80
46366;DHT22;32073;49.166;8.076;2023-04-01T17:58:45;14.30;57.90
46366;DHT22;32073;49.166;8.076;2023-04-01T18:07:24;14.20;57.80
46366;DHT22;32073;49.166;8.076;2023-04-01T18:12:36;14.10;57.80
46366;DHT22;32073;49.166;8.076;2023-04-01T18:17:21;14.00;58.00
46366;DHT22;32073;49.166;8.076;2023-04-01T18:25:52;13.90;58.10
46366;DHT22;32073;49.166;8.076;2023-04-01T18:30:11;13.80;58.30
46366;DHT22;32073;49.166;8.076;2023-04-01T18:34:47;13.90;58.50
46366;DHT22;32073;49.166;8.076;2023-04-01T18:39:22;13.90;58.50
46366;DHT22;32073;49.166;8.076;2023-04-01T18:52:33;14.00;58.60
46366;DHT22;32073;49.166;8.076;2023-04-01T18:56:38;14.00;58.50
46366;DHT22;32073;49.166;8.076;2023-04-01T19:01:05;14.00;58.60
46366;DHT22;32073;49.166;8.076;2023-04-01T19:05:59;14.00;58.50
46366;DHT22;32073;49.166;8.076;2023-04-01T19:09:53;14.00;58.60
46366;DHT22;32073;49.166;8.076;2023-04-01T19:14:19;14.10;58.50
46366;DHT22;32073;49.166;8.076;2023-04-01T19:27:50;14.00;58.60
46366;DHT22;32073;49.166;8.076;2023-04-01T19:40:51;14.10;58.80
46366;DHT22;32073;49.166;8.076;2023-04-01T19:49:42;14.20;58.80
46366;DHT22;32073;49.166;8.076;2023-04-01T19:58:39;14.20;58.70
46366;DHT22;32073;49.166;8.076;2023-04-01T20:07:31;14.20;58.90
46366;DHT22;32073;49.166;8.076;2023-04-01T20:16:10;14.30;58.80
46366;DHT22;32073;49.166;8.076;2023-04-01T20:24:23;14.40;58.70
46366;DHT22;32073;49.166;8.076;2023-04-01T20:28:49;14.40;58.70
46366;DHT22;32073;49.166;8.076;2023-04-01T20:51:31;14.40;58.60
46366;DHT22;32073;49.166;8.076;2023-04-01T21:05:35;14.40;58.40
46366;DHT22;32073;49.166;8.076;2023-04-01T21:45:26;14.20;58.80
46366;DHT22;32073;49.166;8.076;2023-04-01T21:50:14;14.20;58.80
46366;DHT22;32073;49.166;8.076;2023-04-01T21:54:57;14.20;58.90
46366;DHT22;32073;49.166;8.076;2023-04-01T22:03:58;14.20;58.90
46366;DHT22;32073;49.166;8.076;2023-04-01T22:08:21;14.20;58.80
46366;DHT22;32073;49.166;8.076;2023-04-01T22:12:44;14.20;58.80
46366;DHT22;32073;49.166;8.076;2023-04-01T22:17:28;14.20;58.80
46366;DHT22;32073;49.166;8.076;2023-04-01T22:30:27;14.20;58.90
46366;DHT22;32073;49.166;8.076;2023-04-01T22:34:53;14.20;58.90
46366;DHT22;32073;49.166;8.076;2023-04-01T22:39:27;14.10;59.00
46366;DHT22;32073;49.166;8.076;2023-04-01T22:43:39;14.00;59.00
46366;DHT22;32073;49.166;8.076;2023-04-01T22:52:01;14.00;59.20
46366;DHT22;32073;49.166;8.076;2023-04-01T22:56:18;13.90;59.10
46366;DHT22;32073;49.166;8.076;2023-04-01T23:00:47;13.90;59.30
46366;DHT22;32073;49.166;8.076;2023-04-01T23:04:55;13.90;59.30
46366;DHT22;32073;49.166;8.076;2023-04-01T23:13:15;13.80;59.30
46366;DHT22;32073;49.166;8.076;2023-04-01T23:17:39;13.80;59.40
46366;DHT22;32073;49.166;8.076;2023-04-01T23:21:46;13.80;59.50
46366;DHT22;32073;49.166;8.076;2023-04-01T23:34:50;13.70;59.80
46366;DHT22;32073;49.166;8.076;2023-04-01T23:38:52;13.70;59.90
46366;DHT22;32073;49.166;8.076;2023-04-01T23:42:53;13.70;59.90
46366;DHT22;32073;49.166;8.076;2023-04-01T23:46:54;13.70;60.00
46366;DHT22;32073;49.166;8.076;2023-04-01T23:50:56;13.80;60.10
46366;DHT22;32073;49.166;8.076;2023-04-01T23:59:22;13.90;60.40
